createdAt,value
2024-05-09T00:01:09.121Z,3.10
2024-05-09T00:03:39.203Z,4.30
2024-05-09T00:06:12.044Z,2.97
2024-05-09T00:08:42.247Z,4.50
2024-05-09T00:11:12.488Z,3.00
2024-05-09T00:13:45.251Z,3.07
2024-05-09T00:16:15.298Z,4.57
2024-05-09T00:18:45.395Z,4.20
2024-05-09T00:21:16.211Z,3.03
2024-05-09T00:23:46.259Z,2.43
2024-05-09T00:26:18.253Z,2.83
2024-05-09T00:28:51.112Z,5.27
2024-05-09T00:31:21.122Z,2.90
2024-05-09T00:33:51.280Z,2.43
2024-05-09T00:36:21.473Z,2.70
2024-05-09T00:38:51.456Z,3.80
2024-05-09T00:41:21.482Z,2.67
2024-05-09T00:43:54.175Z,3.50
2024-05-09T00:46:24.418Z,2.30
2024-05-09T00:48:54.787Z,3.97
2024-05-09T00:51:25.060Z,2.70
2024-05-09T00:53:55.492Z,2.93
2024-05-09T00:56:25.972Z,2.03
2024-05-09T00:58:59.031Z,5.40
2024-05-09T01:01:29.315Z,3.00
2024-05-09T01:03:59.485Z,2.80
2024-05-09T01:06:29.539Z,3.93
2024-05-09T01:08:59.612Z,3.27
2024-05-09T01:11:36.405Z,4.00
2024-05-09T01:14:09.455Z,3.60
2024-05-09T01:16:39.909Z,8.13
2024-05-09T01:19:22.772Z,3.20
2024-05-09T01:21:52.912Z,2.87
2024-05-09T01:24:25.604Z,4.27
2024-05-09T01:26:55.623Z,3.80
2024-05-09T01:29:25.890Z,2.73
2024-05-09T01:31:59.196Z,3.57
2024-05-09T01:34:29.414Z,4.33
2024-05-09T01:36:59.430Z,4.17
2024-05-09T01:39:32.029Z,2.90
2024-05-09T01:42:02.105Z,4.70
2024-05-09T01:44:32.172Z,3.93
2024-05-09T01:47:02.308Z,4.70
2024-05-09T01:49:35.391Z,7.77
2024-05-09T01:52:05.625Z,5.40
2024-05-09T01:54:38.234Z,3.67
2024-05-09T01:57:08.345Z,4.03
2024-05-09T01:59:39.447Z,2.97
2024-05-09T02:02:10.118Z,4.20
2024-05-09T02:04:40.481Z,5.77
2024-05-09T02:07:10.574Z,4.60
2024-05-09T02:09:43.311Z,3.97
2024-05-09T02:12:13.414Z,5.20
2024-05-09T02:14:43.486Z,4.80
2024-05-09T02:17:13.574Z,5.33
2024-05-09T02:19:43.652Z,3.60
2024-05-09T02:22:13.669Z,4.27
2024-05-09T02:24:46.311Z,4.30
2024-05-09T02:27:16.719Z,3.20
2024-05-09T02:29:47.991Z,5.20
2024-05-09T02:32:18.217Z,2.90
2024-05-09T02:34:48.393Z,4.20
2024-05-09T02:37:18.539Z,4.00
2024-05-09T02:39:48.514Z,4.73
2024-05-09T02:42:18.512Z,10.00
2024-05-09T02:44:45.929Z,4.50
2024-05-09T02:47:16.125Z,5.73
2024-05-09T02:49:43.655Z,6.60
2024-05-09T02:52:13.676Z,3.43
2024-05-09T02:54:41.086Z,8.10
2024-05-09T02:57:13.883Z,3.27
2024-05-09T02:59:43.457Z,3.07
2024-05-09T03:02:13.811Z,7.40
2024-05-09T03:04:42.284Z,4.53
2024-05-09T03:07:12.297Z,3.30
2024-05-09T03:09:39.828Z,3.33
2024-05-09T03:12:12.932Z,3.13
2024-05-09T03:14:40.564Z,5.73
2024-05-09T03:17:10.768Z,3.90
2024-05-09T03:19:38.323Z,2.90
2024-05-09T03:22:08.381Z,4.27
2024-05-09T03:24:35.796Z,3.80
2024-05-09T03:27:06.189Z,11.57
2024-05-09T03:29:37.067Z,3.27
2024-05-09T03:32:07.863Z,3.47
2024-05-09T03:34:35.529Z,3.70
2024-05-09T03:37:05.721Z,5.40
2024-05-09T03:39:35.871Z,5.40
2024-05-09T03:42:06.333Z,4.43
2024-05-09T03:44:38.950Z,5.87
2024-05-09T03:47:06.522Z,3.80
2024-05-09T03:49:36.689Z,4.30
2024-05-09T03:52:05.405Z,3.13
2024-05-09T03:54:37.652Z,3.03
2024-05-09T03:57:06.028Z,7.57
2024-05-09T03:59:37.131Z,3.60
2024-05-09T04:02:07.702Z,5.23
2024-05-09T04:04:38.621Z,4.20
2024-05-09T04:07:06.122Z,2.80
2024-05-09T04:09:36.167Z,3.50
2024-05-09T04:12:04.011Z,3.67
2024-05-09T04:14:34.421Z,3.80
2024-05-09T04:17:01.910Z,5.03
2024-05-09T04:19:34.662Z,3.00
2024-05-09T04:22:02.145Z,3.13
2024-05-09T04:24:32.425Z,2.63
2024-05-09T04:26:59.871Z,5.67
2024-05-09T04:29:30.039Z,3.97
2024-05-09T04:31:57.664Z,3.40
2024-05-09T04:34:27.803Z,3.20
2024-05-09T04:36:57.885Z,3.27
2024-05-09T04:39:27.920Z,2.23
2024-05-09T04:41:55.530Z,3.80
2024-05-09T04:44:25.713Z,2.57
2024-05-09T04:46:53.274Z,8.27
2024-05-09T04:49:23.483Z,3.37
2024-05-09T04:51:50.967Z,2.90
2024-05-09T04:54:33.528Z,4.10
2024-05-09T04:57:03.827Z,3.50
2024-05-09T04:59:33.944Z,4.80
2024-05-09T05:02:01.767Z,6.30
2024-05-09T05:04:32.142Z,3.87
2024-05-09T05:07:02.700Z,3.80
2024-05-09T05:09:35.620Z,4.07
2024-05-09T05:12:23.210Z,7.50
2024-05-09T05:14:53.314Z,5.07
2024-05-09T05:17:20.861Z,6.07
2024-05-09T05:19:51.127Z,3.90
2024-05-09T05:22:21.178Z,4.50
2024-05-09T05:24:51.240Z,4.03
2024-05-09T05:27:21.237Z,5.80
2024-05-09T05:29:48.672Z,4.10
2024-05-09T05:32:18.798Z,4.10
2024-05-09T05:34:46.346Z,5.57
2024-05-09T05:37:16.399Z,6.20
2024-05-09T05:39:43.810Z,7.53
2024-05-09T05:42:19.628Z,5.37
2024-05-09T05:44:47.041Z,6.10
2024-05-09T05:47:17.141Z,3.70
2024-05-09T05:49:44.595Z,4.83
2024-05-09T05:52:14.990Z,3.80
2024-05-09T05:54:42.478Z,7.60
2024-05-09T05:57:13.731Z,4.30
2024-05-09T05:59:43.768Z,6.03
2024-05-09T06:02:14.799Z,5.03
2024-05-09T06:04:42.450Z,3.67
2024-05-09T06:07:12.589Z,4.93
2024-05-09T06:09:40.026Z,3.83
2024-05-09T06:12:10.190Z,5.67
2024-05-09T06:14:38.298Z,5.20
2024-05-09T06:17:11.515Z,3.97
2024-05-09T06:19:39.175Z,5.90
2024-05-09T06:22:09.728Z,9.30
2024-05-09T06:24:37.290Z,5.03
2024-05-09T06:27:08.654Z,8.07
2024-05-09T06:29:38.458Z,6.97
2024-05-09T06:32:11.239Z,6.27
2024-05-09T06:34:38.942Z,7.73
2024-05-09T06:37:09.047Z,7.47
2024-05-09T06:39:36.533Z,5.33
2024-05-09T06:42:07.087Z,6.73
2024-05-09T06:44:37.139Z,8.33
2024-05-09T06:47:04.860Z,5.43
2024-05-09T06:49:37.798Z,7.80
2024-05-09T06:52:06.163Z,10.10
2024-05-09T06:54:37.683Z,5.97
2024-05-09T06:57:05.323Z,6.60
2024-05-09T06:59:35.419Z,6.83
2024-05-09T07:02:05.804Z,6.30
2024-05-09T07:04:36.235Z,5.43
2024-05-09T07:07:09.350Z,4.07
2024-05-09T07:09:36.811Z,4.70
2024-05-09T07:12:07.966Z,9.10
2024-05-09T07:14:36.963Z,6.27
2024-05-09T07:17:08.258Z,4.67
2024-05-09T07:19:38.500Z,6.20
2024-05-09T07:22:08.731Z,8.03
2024-05-09T07:24:37.334Z,5.57
2024-05-09T07:27:07.798Z,6.30
2024-05-09T07:29:38.378Z,5.37
2024-05-09T07:32:09.374Z,7.60
2024-05-09T07:34:39.448Z,6.37
2024-05-09T07:37:12.796Z,7.83
2024-05-09T07:39:40.467Z,6.50
2024-05-09T07:42:10.708Z,5.53
2024-05-09T07:44:38.194Z,4.80
2024-05-09T07:48:14.644Z,5.70
2024-05-09T07:51:48.024Z,4.60
2024-05-09T07:53:35.271Z,5.23
2024-05-09T07:55:37.650Z,4.33
2024-05-09T07:58:08.280Z,7.10
2024-05-09T08:00:35.878Z,7.77
2024-05-09T08:03:06.065Z,6.10
2024-05-09T08:05:38.243Z,7.53
2024-05-09T08:08:09.096Z,4.70
2024-05-09T08:10:36.646Z,5.80
2024-05-09T08:13:07.108Z,4.63
2024-05-09T08:15:34.673Z,3.63
2024-05-09T08:18:04.988Z,5.50
2024-05-09T08:20:35.253Z,5.67
2024-05-09T08:23:08.669Z,10.03
2024-05-09T08:25:37.076Z,6.80
2024-05-09T08:28:07.555Z,6.10
2024-05-09T08:30:37.350Z,8.00
2024-05-09T08:33:09.019Z,3.80
2024-05-09T08:35:36.564Z,3.10
2024-05-09T08:38:09.898Z,5.37
2024-05-09T08:40:38.218Z,5.20
2024-05-09T08:43:12.091Z,4.27
2024-05-09T08:45:43.879Z,7.10
2024-05-09T08:48:16.913Z,3.33
2024-05-09T08:50:45.599Z,4.37
2024-05-09T08:53:18.651Z,5.30
2024-05-09T08:55:46.815Z,2.83
2024-05-09T08:58:20.292Z,9.23
2024-05-09T09:00:49.379Z,3.40
2024-05-09T09:03:21.527Z,4.00
2024-05-09T09:05:55.922Z,7.70
2024-05-09T09:08:29.082Z,5.13
2024-05-09T09:10:58.631Z,9.70
2024-05-09T09:13:29.011Z,3.83
2024-05-09T09:15:58.674Z,3.87
2024-05-09T09:18:30.337Z,6.03
2024-05-09T09:20:58.656Z,3.17
2024-05-09T09:23:31.319Z,6.03
2024-05-09T09:25:59.607Z,5.00
2024-05-09T09:28:29.701Z,5.30
2024-05-09T09:31:01.803Z,4.10
2024-05-09T09:33:33.093Z,3.60
2024-05-09T09:36:00.789Z,3.83
2024-05-09T09:38:34.117Z,6.60
2024-05-09T09:41:06.724Z,3.10
2024-05-09T09:43:36.823Z,4.87
2024-05-09T09:46:07.955Z,4.30
2024-05-09T09:48:42.584Z,7.53
2024-05-09T09:51:10.513Z,3.83
2024-05-09T09:53:44.729Z,3.30
2024-05-09T09:56:13.351Z,2.27
2024-05-09T09:58:46.387Z,3.90
2024-05-09T10:01:14.025Z,2.60
2024-05-09T10:03:45.943Z,4.03
2024-05-09T10:06:14.508Z,2.67
2024-05-09T10:08:48.497Z,4.23
2024-05-09T10:11:20.123Z,2.80
2024-05-09T10:13:50.223Z,5.47
2024-05-09T10:16:21.191Z,2.77
2024-05-09T10:18:51.706Z,2.80
2024-05-09T10:21:20.334Z,2.17
2024-05-09T10:24:02.911Z,3.50
2024-05-09T10:26:32.011Z,2.47
2024-05-09T10:29:03.425Z,4.40
2024-05-09T10:31:31.316Z,2.70
2024-05-09T10:34:03.372Z,2.63
2024-05-09T10:36:31.146Z,2.90
2024-05-09T10:39:03.941Z,2.27
2024-05-09T10:41:31.361Z,3.43
2024-05-09T10:44:01.370Z,2.70
2024-05-09T10:46:28.927Z,1.70
2024-05-09T10:49:04.210Z,2.20
2024-05-09T10:51:33.941Z,2.43
2024-05-09T10:54:07.859Z,10.70
2024-05-09T10:56:35.356Z,3.20
2024-05-09T10:59:06.318Z,3.80
2024-05-09T11:01:33.850Z,2.50
2024-05-09T11:04:04.406Z,4.13
2024-05-09T11:06:32.322Z,2.37
2024-05-09T11:09:02.679Z,1.87
2024-05-09T11:11:32.851Z,2.60
2024-05-09T11:14:02.858Z,2.13
2024-05-09T11:16:30.381Z,4.40
2024-05-09T11:18:58.996Z,1.90
2024-05-09T11:21:29.539Z,3.27
2024-05-09T11:23:57.274Z,3.37
2024-05-09T11:26:29.453Z,2.40
2024-05-09T11:28:59.591Z,5.57
2024-05-09T11:31:29.774Z,1.53
2024-05-09T11:34:00.186Z,2.87
2024-05-09T11:36:30.322Z,1.53
2024-05-09T11:38:57.818Z,3.00
2024-05-09T11:41:30.518Z,1.60
2024-05-09T11:44:00.497Z,1.80
2024-05-09T11:46:31.202Z,1.73
2024-05-09T11:48:58.803Z,2.20
2024-05-09T11:51:28.987Z,3.63
2024-05-09T11:53:56.598Z,1.80
2024-05-09T11:56:26.629Z,1.77
2024-05-09T11:58:54.314Z,2.13
2024-05-09T12:01:28.020Z,2.97
2024-05-09T12:03:55.888Z,2.00
2024-05-09T12:06:26.098Z,3.50
2024-05-09T12:08:53.627Z,2.50
2024-05-09T12:11:24.006Z,3.37
2024-05-09T12:13:51.588Z,2.63
2024-05-09T12:16:21.793Z,2.07
2024-05-09T12:18:52.038Z,1.93
2024-05-09T12:21:22.087Z,1.93
2024-05-09T12:23:49.535Z,2.43
2024-05-09T12:26:19.639Z,4.13
2024-05-09T12:28:47.071Z,1.50
2024-05-09T12:31:17.161Z,1.77
2024-05-09T12:33:44.737Z,2.37
2024-05-09T12:36:17.380Z,1.87
2024-05-09T12:38:45.938Z,3.90
2024-05-09T12:41:15.946Z,2.93
2024-05-09T12:43:43.344Z,1.87
2024-05-09T12:46:13.514Z,1.73
2024-05-09T12:48:41.243Z,5.83
2024-05-09T12:51:11.346Z,5.23
2024-05-09T12:53:41.377Z,1.67
2024-05-09T12:56:11.410Z,1.50
2024-05-09T12:58:39.014Z,1.50
2024-05-09T13:01:09.102Z,2.67
2024-05-09T13:03:36.972Z,3.83
2024-05-09T13:06:07.320Z,2.13
2024-05-09T13:08:34.939Z,1.77
2024-05-09T13:11:08.141Z,3.87
2024-05-09T13:13:35.825Z,1.77
2024-05-09T13:16:06.160Z,3.10
2024-05-09T13:18:35.907Z,1.87
2024-05-09T13:21:06.237Z,1.93
2024-05-09T13:23:33.680Z,5.37
2024-05-09T13:26:03.721Z,2.00
2024-05-09T13:28:34.009Z,1.63
2024-05-09T13:31:04.437Z,2.63
2024-05-09T13:33:32.059Z,1.87
2024-05-09T13:36:02.229Z,1.87
2024-05-09T13:38:29.652Z,3.83
2024-05-09T13:40:59.676Z,1.73
2024-05-09T13:43:27.302Z,1.83
2024-05-09T13:46:00.155Z,4.77
2024-05-09T13:48:27.642Z,2.10
2024-05-09T13:50:57.986Z,3.07
2024-05-09T13:53:25.472Z,2.07
2024-05-09T13:55:55.571Z,6.00
2024-05-09T13:58:23.631Z,1.87
2024-05-09T14:00:53.838Z,1.97
2024-05-09T14:03:24.685Z,4.37
2024-05-09T14:05:55.058Z,1.57
2024-05-09T14:08:23.093Z,1.60
2024-05-09T14:10:53.966Z,1.50
2024-05-09T14:13:21.942Z,1.57
2024-05-09T14:15:52.391Z,4.80
2024-05-09T14:18:20.018Z,1.77
2024-05-09T14:20:52.671Z,1.63
2024-05-09T14:23:20.114Z,1.20
2024-05-09T14:25:52.977Z,5.67
2024-05-09T14:28:21.998Z,1.13
2024-05-09T14:30:52.170Z,2.87
2024-05-09T14:33:25.421Z,2.17
2024-05-09T14:35:58.206Z,1.83
2024-05-09T14:38:27.768Z,4.63
2024-05-09T14:40:57.951Z,2.60
2024-05-09T14:43:25.690Z,1.50
2024-05-09T14:45:56.137Z,2.37
2024-05-09T14:48:23.846Z,2.60
2024-05-09T14:50:53.990Z,5.47
2024-05-09T14:53:23.975Z,3.83
2024-05-09T14:55:54.131Z,1.87
2024-05-09T14:58:21.858Z,6.20
2024-05-09T15:00:52.356Z,1.73
2024-05-09T15:03:21.318Z,2.13
2024-05-09T15:05:52.683Z,3.53
2024-05-09T15:08:20.494Z,1.43
2024-05-09T15:10:53.327Z,1.00
2024-05-09T15:13:21.411Z,4.97
2024-05-09T15:15:51.919Z,2.40
2024-05-09T15:18:19.961Z,1.83
2024-05-09T15:20:50.187Z,3.60
2024-05-09T15:23:17.709Z,1.40
2024-05-09T15:25:47.894Z,2.20
2024-05-09T15:28:18.616Z,3.73
2024-05-09T15:30:48.901Z,1.67
2024-05-09T15:33:17.635Z,1.93
2024-05-09T15:35:48.073Z,2.73
2024-05-09T15:38:15.975Z,1.70
2024-05-09T15:40:46.308Z,1.33
2024-05-09T15:43:14.174Z,1.27
2024-05-09T15:45:46.938Z,1.43
2024-05-09T15:48:14.719Z,2.13
2024-05-09T15:50:45.319Z,2.20
2024-05-09T15:53:13.846Z,1.37
2024-05-09T15:55:44.277Z,2.20
2024-05-09T15:58:12.589Z,5.50
2024-05-09T16:00:48.784Z,2.37
2024-05-09T16:03:18.168Z,2.70
2024-05-09T16:05:48.793Z,2.20
2024-05-09T16:08:16.756Z,4.33
2024-05-09T16:10:48.083Z,2.50
2024-05-09T16:13:16.642Z,1.50
2024-05-09T16:15:50.423Z,1.70
2024-05-09T16:18:18.698Z,4.20
2024-05-09T16:20:50.241Z,1.97
2024-05-09T16:23:18.061Z,2.70
2024-05-09T16:25:49.016Z,6.83
2024-05-09T16:28:16.815Z,3.23
2024-05-09T16:30:46.977Z,2.37
2024-05-09T16:33:20.934Z,7.60
2024-05-09T16:35:51.319Z,2.20
2024-05-09T16:38:19.276Z,2.10
2024-05-09T16:40:49.829Z,2.57
2024-05-09T16:43:17.552Z,1.70
2024-05-09T16:45:47.826Z,2.93
2024-05-09T16:48:18.083Z,2.50
2024-05-09T16:50:48.189Z,3.03
2024-05-09T16:53:15.763Z,1.80
2024-05-09T16:55:45.805Z,2.93
2024-05-09T16:58:13.529Z,2.20
2024-05-09T17:00:44.475Z,1.60
2024-05-09T17:03:14.874Z,2.20
2024-05-09T17:05:50.603Z,4.23
2024-05-09T17:08:18.694Z,2.50
2024-05-09T17:10:49.967Z,5.13
2024-05-09T17:13:20.892Z,1.77
2024-05-09T17:15:51.389Z,2.77
2024-05-09T17:18:22.365Z,5.23
2024-05-09T17:20:52.714Z,4.60
2024-05-09T17:23:22.793Z,2.80
2024-05-09T17:25:50.247Z,1.40
2024-05-09T17:28:20.714Z,2.20
2024-05-09T17:30:48.664Z,5.77
2024-05-09T17:33:18.948Z,1.83
2024-05-09T17:35:50.401Z,6.13
2024-05-09T17:38:24.992Z,2.87
2024-05-09T17:40:53.623Z,2.77
2024-05-09T17:43:23.904Z,5.07
2024-05-09T17:45:51.479Z,1.60
2024-05-09T17:48:21.907Z,1.70
2024-05-09T17:50:52.287Z,4.23
2024-05-09T17:53:22.320Z,2.90
2024-05-09T17:55:53.981Z,1.63
2024-05-09T17:58:21.683Z,1.93
2024-05-09T18:00:51.917Z,3.10
2024-05-09T18:03:20.040Z,2.17
2024-05-09T18:05:50.200Z,2.30
2024-05-09T18:08:17.732Z,8.00
2024-05-09T18:10:52.082Z,2.43
2024-05-09T18:15:51.127Z,1.70
2024-05-09T18:18:18.819Z,2.53
2024-05-09T18:20:49.187Z,2.80
2024-05-09T18:23:18.112Z,3.77
2024-05-09T18:25:54.721Z,3.03
2024-05-09T18:28:22.867Z,2.77
2024-05-09T18:30:52.966Z,4.73
2024-05-09T18:33:20.772Z,1.53
2024-05-09T18:35:50.922Z,7.03
2024-05-09T18:38:25.523Z,2.97
2024-05-09T18:40:55.807Z,1.93
2024-05-09T18:43:31.180Z,2.90
2024-05-09T18:46:05.599Z,3.27
2024-05-09T18:48:37.088Z,2.27
2024-05-09T18:51:05.666Z,2.20
2024-05-09T18:53:35.745Z,5.33
2024-05-09T18:56:07.172Z,2.67
2024-05-09T18:58:37.215Z,4.27
2024-05-09T19:01:05.006Z,4.60
2024-05-09T19:03:35.534Z,5.27
2024-05-09T19:06:03.352Z,4.27
2024-05-09T19:08:33.475Z,5.23
2024-05-09T19:11:02.021Z,4.87
2024-05-09T19:13:34.951Z,8.30
2024-05-09T19:16:03.364Z,4.43
2024-05-09T19:18:33.814Z,5.70
2024-05-09T19:21:01.819Z,7.10
2024-05-09T19:23:35.352Z,10.40
2024-05-09T19:26:05.533Z,13.27
2024-05-09T19:28:38.175Z,10.63
2024-05-09T19:31:05.741Z,13.77
2024-05-09T19:33:36.993Z,11.40
2024-05-09T19:36:05.598Z,8.43
2024-05-09T19:38:35.983Z,14.87
2024-05-09T19:41:03.784Z,10.67
2024-05-09T19:43:35.848Z,9.80
2024-05-09T19:46:06.258Z,8.13
2024-05-09T19:48:36.574Z,2.77
2024-05-09T19:51:04.278Z,3.43
2024-05-09T19:53:34.456Z,3.70
2024-05-09T19:56:01.878Z,3.03
2024-05-09T19:58:31.958Z,5.17
2024-05-09T20:00:59.506Z,5.37
2024-05-09T20:03:36.863Z,2.37
2024-05-09T20:06:04.740Z,3.83
2024-05-09T20:08:34.751Z,6.00
2024-05-09T20:11:02.388Z,5.40
2024-05-09T20:13:32.496Z,4.77
2024-05-09T20:16:01.373Z,10.03
2024-05-09T20:18:34.219Z,7.60
2024-05-09T20:21:02.544Z,6.40
2024-05-09T20:23:32.916Z,4.43
2024-05-09T20:26:00.406Z,4.93
2024-05-09T20:28:30.573Z,4.13
2024-05-09T20:30:58.094Z,3.50
2024-05-09T20:33:28.198Z,7.83
2024-05-09T20:36:01.650Z,3.97
2024-05-09T20:38:32.238Z,15.13
2024-05-09T20:40:59.768Z,16.53
2024-05-09T20:43:29.889Z,11.90
2024-05-09T20:45:57.485Z,13.23
2024-05-09T20:48:27.587Z,14.13
2024-05-09T20:50:57.688Z,6.90
2024-05-09T20:53:27.682Z,9.30
2024-05-09T20:55:57.696Z,14.83
2024-05-09T20:58:25.301Z,21.10
2024-05-09T21:00:55.470Z,22.03
2024-05-09T21:03:23.026Z,54.40
2024-05-09T21:05:53.247Z,72.13
2024-05-09T21:08:23.870Z,44.23
2024-05-09T21:10:54.056Z,28.63
2024-05-09T21:13:21.583Z,35.77
2024-05-09T21:15:51.708Z,11.73
2024-05-09T21:18:19.444Z,13.27
2024-05-09T21:20:49.504Z,7.93
2024-05-09T21:23:17.403Z,9.07
2024-05-09T21:25:50.034Z,12.67
2024-05-09T21:28:17.455Z,8.03
2024-05-09T21:30:47.677Z,15.03
2024-05-09T21:33:15.540Z,10.27
2024-05-09T21:35:46.179Z,17.03
2024-05-09T21:38:14.796Z,13.63
2024-05-09T21:40:46.316Z,16.77
2024-05-09T21:43:16.437Z,12.17
2024-05-09T21:45:46.658Z,16.53
2024-05-09T21:48:14.147Z,14.87
2024-05-09T21:50:44.468Z,15.50
2024-05-09T21:53:12.744Z,42.77
2024-05-09T21:55:44.086Z,28.07
2024-05-09T21:58:13.209Z,20.43
2024-05-09T22:00:46.581Z,14.83
2024-05-09T22:03:14.644Z,9.97
2024-05-09T22:05:45.283Z,7.23
2024-05-09T22:08:13.163Z,9.87
2024-05-09T22:10:43.526Z,9.63
2024-05-09T22:13:11.150Z,7.73
2024-05-09T22:15:42.597Z,3.83
2024-05-09T22:18:12.895Z,6.23
2024-05-09T22:20:45.669Z,4.80
2024-05-09T22:23:14.877Z,3.97
2024-05-09T22:25:45.450Z,5.60
2024-05-09T22:28:15.384Z,3.80
2024-05-09T22:30:47.239Z,3.70
2024-05-09T22:33:18.007Z,3.60
2024-05-09T22:35:48.222Z,3.30
2024-05-09T22:38:15.741Z,5.27
2024-05-09T22:40:48.988Z,5.87
2024-05-09T22:43:19.550Z,3.73
2024-05-09T22:45:50.354Z,5.53
2024-05-09T22:48:20.755Z,5.00
2024-05-09T22:50:50.897Z,5.27
2024-05-09T22:53:18.390Z,8.40
2024-05-09T22:55:48.412Z,3.87
2024-05-09T22:58:15.953Z,5.00
2024-05-09T23:00:46.117Z,3.63
2024-05-09T23:03:15.953Z,5.63
2024-05-09T23:05:48.607Z,4.33
2024-05-09T23:08:16.145Z,4.03
2024-05-09T23:10:46.297Z,4.10
2024-05-09T23:13:13.873Z,5.40
2024-05-09T23:15:44.086Z,3.50
2024-05-09T23:18:11.713Z,4.13
2024-05-09T23:20:41.787Z,4.60
2024-05-09T23:23:12.325Z,3.87
2024-05-09T23:25:43.669Z,4.40
2024-05-09T23:28:12.713Z,4.77
2024-05-09T23:30:43.010Z,5.37
2024-05-09T23:33:11.931Z,8.37
2024-05-09T23:35:44.538Z,5.27
2024-05-09T23:38:15.012Z,8.70
2024-05-09T23:40:45.137Z,7.30
2024-05-09T23:43:13.198Z,6.97
2024-05-09T23:45:43.854Z,8.60
2024-05-09T23:48:11.744Z,6.37
2024-05-09T23:50:42.046Z,5.17
2024-05-09T23:53:10.446Z,6.70
2024-05-09T23:55:43.712Z,6.37
2024-05-09T23:58:11.892Z,4.73
